Kuttawa, KY (42055)

4:09 PM CDT on August 30, 2015 (GMT -0500)
The Ridge Eddycreek | | Change Station
CLOSE
Current Station
Personal Weather Station
Location: Eddyville, KY
Elevation: 471 ft
Nearby Weather Stations

Elev 471 ft 37.02 °N, 88.01 °W | Updated 45 seconds ago

Partly Cloudy
Partly Cloudy
71.0 °F
Feels Like 71.0 °F
N
1.0
Wind Variable Wind from NE
Gusts 8.0 mph

Today
High -- | Low -- °F
--% Chance of Precip.
Yesterday
High -- | Low -- °F
Precip. -- in
6:21 AM 7:24 PM
Full, 98% visible
Pressure 30.05 in
Visibility 10.0 miles
Clouds Scattered Clouds 2800 ft
Dew Point 69 °F
Humidity 94%
Rainfall 0.36 in
Snow Depth Not available.
UV 4 out of 12
Pollen 10.10 out of 12
Air Quality Not available.
Flu Activity Not available.
METAR K5M9 302055Z AUTO 15005KT 10SM SCT028 28/22 A3005 RMK AO2 T02830217
Pressure 30.05 in
Visibility 10.0 miles
Clouds Scattered Clouds 2800 ft
Dew Point 69 °F
Humidity 94%
Rainfall 0.36 in
Snow Depth Not available.
UV 4 out of 12
Pollen 10.10 out of 12
Air Quality Not available.
Flu Activity Not available.
METAR K5M9 302055Z AUTO 15005KT 10SM SCT028 28/22 A3005 RMK AO2 T02830217

10-Day Weather Forecast

×

Almanac

Astronomy

Aug. 30, 2015 Rise Set
Actual Time
Civil Twilight
Nautical Twilight
Astronomical Twilight
Moon
Length of Visible Light
Length of Day
Tomorrow will be .
, % of the Moon is Illuminated

Today's Extremes

State Highs State Lows

Community

WunderPhotos

Upload Photos

1,851,060 photos uploaded!

WunderBlogs® & News

Nearby

Air Quality

  Air Quality AQ Index Pollutant
Not available.

Snow Depth

Station Depth Elevation

Earthquake Activity

City Distance Mag. Time & Date
Minimum magnitude displayed is 2.5.

Coastal Water Temperatures

Place Temperature

Stations

Nearby Weather Stations

Station Location Temp. Windchill Dew Point Humidity Wind Precip. Elev Updated Type